sensor_id;sensor_type;location;lat;lon;timestamp;P1;durP1;ratioP1;P2;durP2;ratioP2
50858;SDS011;36826;47.514;19.056;2022-11-15T00:01:09;47.63;;;24.90;;
50858;SDS011;36826;47.514;19.056;2022-11-15T00:03:40;36.28;;;23.17;;
50858;SDS011;36826;47.514;19.056;2022-11-15T00:06:05;35.92;;;22.63;;
50858;SDS011;36826;47.514;19.056;2022-11-15T00:08:31;36.80;;;23.08;;
50858;SDS011;36826;47.514;19.056;2022-11-15T00:10:58;32.20;;;22.38;;
50858;SDS011;36826;47.514;19.056;2022-11-15T00:13:24;36.90;;;23.35;;
50858;SDS011;36826;47.514;19.056;2022-11-15T00:15:50;34.35;;;22.30;;
50858;SDS011;36826;47.514;19.056;2022-11-15T00:18:15;37.28;;;22.33;;
50858;SDS011;36826;47.514;19.056;2022-11-15T00:20:41;35.28;;;22.20;;
50858;SDS011;36826;47.514;19.056;2022-11-15T00:23:07;33.78;;;22.02;;
50858;SDS011;36826;47.514;19.056;2022-11-15T00:25:33;33.15;;;21.85;;
50858;SDS011;36826;47.514;19.056;2022-11-15T00:27:59;35.90;;;22.25;;
50858;SDS011;36826;47.514;19.056;2022-11-15T00:30:26;34.00;;;21.60;;
50858;SDS011;36826;47.514;19.056;2022-11-15T00:32:52;33.72;;;21.73;;
50858;SDS011;36826;47.514;19.056;2022-11-15T00:35:18;31.15;;;20.55;;
50858;SDS011;36826;47.514;19.056;2022-11-15T00:37:44;33.20;;;21.75;;
50858;SDS011;36826;47.514;19.056;2022-11-15T00:40:10;29.75;;;20.70;;
50858;SDS011;36826;47.514;19.056;2022-11-15T00:42:37;32.85;;;21.40;;
50858;SDS011;36826;47.514;19.056;2022-11-15T00:45:03;41.15;;;21.27;;
50858;SDS011;36826;47.514;19.056;2022-11-15T00:47:29;42.53;;;22.17;;
50858;SDS011;36826;47.514;19.056;2022-11-15T00:49:54;35.67;;;22.42;;
50858;SDS011;36826;47.514;19.056;2022-11-15T00:52:20;33.10;;;21.35;;
50858;SDS011;36826;47.514;19.056;2022-11-15T00:54:45;33.72;;;21.83;;
50858;SDS011;36826;47.514;19.056;2022-11-15T00:57:11;34.70;;;21.63;;
50858;SDS011;36826;47.514;19.056;2022-11-15T00:59:36;33.08;;;21.58;;
50858;SDS011;36826;47.514;19.056;2022-11-15T01:02:01;32.78;;;21.42;;
50858;SDS011;36826;47.514;19.056;2022-11-15T01:04:27;31.88;;;21.45;;
50858;SDS011;36826;47.514;19.056;2022-11-15T01:06:53;33.00;;;22.15;;
50858;SDS011;36826;47.514;19.056;2022-11-15T01:09:18;32.42;;;21.25;;
50858;SDS011;36826;47.514;19.056;2022-11-15T01:11:44;33.00;;;22.27;;
50858;SDS011;36826;47.514;19.056;2022-11-15T01:14:09;30.90;;;21.05;;
50858;SDS011;36826;47.514;19.056;2022-11-15T01:16:35;28.23;;;20.38;;
50858;SDS011;36826;47.514;19.056;2022-11-15T01:19:01;30.27;;;20.27;;
50858;SDS011;36826;47.514;19.056;2022-11-15T01:21:27;26.83;;;19.95;;
50858;SDS011;36826;47.514;19.056;2022-11-15T01:23:53;27.38;;;19.45;;
50858;SDS011;36826;47.514;19.056;2022-11-15T01:26:20;28.60;;;19.98;;
50858;SDS011;36826;47.514;19.056;2022-11-15T01:28:46;27.50;;;19.80;;
50858;SDS011;36826;47.514;19.056;2022-11-15T01:31:13;27.35;;;19.20;;
50858;SDS011;36826;47.514;19.056;2022-11-15T01:33:40;28.20;;;19.42;;
50858;SDS011;36826;47.514;19.056;2022-11-15T01:36:07;30.15;;;20.73;;
50858;SDS011;36826;47.514;19.056;2022-11-15T01:38:36;25.83;;;18.30;;
50858;SDS011;36826;47.514;19.056;2022-11-15T01:41:01;27.83;;;19.08;;
50858;SDS011;36826;47.514;19.056;2022-11-15T01:43:28;28.08;;;19.15;;
50858;SDS011;36826;47.514;19.056;2022-11-15T01:45:56;27.10;;;18.60;;
50858;SDS011;36826;47.514;19.056;2022-11-15T01:48:26;26.52;;;18.80;;
50858;SDS011;36826;47.514;19.056;2022-11-15T01:50:57;28.50;;;19.17;;
50858;SDS011;36826;47.514;19.056;2022-11-15T01:53:24;27.77;;;19.17;;
50858;SDS011;36826;47.514;19.056;2022-11-15T01:55:52;28.30;;;19.48;;
50858;SDS011;36826;47.514;19.056;2022-11-15T01:58:18;29.25;;;19.55;;
50858;SDS011;36826;47.514;19.056;2022-11-15T02:00:44;27.23;;;19.23;;
50858;SDS011;36826;47.514;19.056;2022-11-15T02:03:10;29.30;;;19.92;;
50858;SDS011;36826;47.514;19.056;2022-11-15T02:05:35;27.55;;;19.05;;
50858;SDS011;36826;47.514;19.056;2022-11-15T02:08:02;28.85;;;20.02;;
50858;SDS011;36826;47.514;19.056;2022-11-15T02:10:28;27.73;;;18.83;;
50858;SDS011;36826;47.514;19.056;2022-11-15T02:12:53;28.33;;;19.30;;
50858;SDS011;36826;47.514;19.056;2022-11-15T02:15:21;30.80;;;19.15;;
50858;SDS011;36826;47.514;19.056;2022-11-15T02:23:53;31.40;;;20.20;;
50858;SDS011;36826;47.514;19.056;2022-11-15T02:32:18;32.20;;;20.77;;
50858;SDS011;36826;47.514;19.056;2022-11-15T02:37:33;37.55;;;22.70;;
50858;SDS011;36826;47.514;19.056;2022-11-15T02:42:50;39.80;;;22.02;;
50858;SDS011;36826;47.514;19.056;2022-11-15T02:45:40;37.47;;;23.27;;
50858;SDS011;36826;47.514;19.056;2022-11-15T02:48:13;35.47;;;22.13;;
50858;SDS011;36826;47.514;19.056;2022-11-15T02:50:40;38.60;;;23.13;;
50858;SDS011;36826;47.514;19.056;2022-11-15T02:53:07;39.55;;;24.17;;
50858;SDS011;36826;47.514;19.056;2022-11-15T02:55:38;38.17;;;24.17;;
50858;SDS011;36826;47.514;19.056;2022-11-15T03:01:41;39.08;;;22.33;;
50858;SDS011;36826;47.514;19.056;2022-11-15T03:07:00;39.53;;;22.70;;
50858;SDS011;36826;47.514;19.056;2022-11-15T03:09:52;37.90;;;21.88;;
50858;SDS011;36826;47.514;19.056;2022-11-15T03:12:31;36.38;;;22.08;;
50858;SDS011;36826;47.514;19.056;2022-11-15T03:15:00;35.17;;;21.13;;
50858;SDS011;36826;47.514;19.056;2022-11-15T03:17:32;32.20;;;20.92;;
50858;SDS011;36826;47.514;19.056;2022-11-15T03:20:06;30.83;;;20.23;;
50858;SDS011;36826;47.514;19.056;2022-11-15T03:22:35;29.20;;;19.25;;
50858;SDS011;36826;47.514;19.056;2022-11-15T03:25:05;29.88;;;19.23;;
50858;SDS011;36826;47.514;19.056;2022-11-15T03:27:35;28.08;;;18.33;;
50858;SDS011;36826;47.514;19.056;2022-11-15T03:30:08;27.05;;;18.33;;
50858;SDS011;36826;47.514;19.056;2022-11-15T03:32:35;27.48;;;18.67;;
50858;SDS011;36826;47.514;19.056;2022-11-15T03:35:09;27.42;;;18.30;;
50858;SDS011;36826;47.514;19.056;2022-11-15T03:37:53;25.52;;;17.13;;
50858;SDS011;36826;47.514;19.056;2022-11-15T03:40:24;26.92;;;17.98;;
50858;SDS011;36826;47.514;19.056;2022-11-15T03:43:21;26.60;;;17.30;;
50858;SDS011;36826;47.514;19.056;2022-11-15T03:45:50;27.25;;;17.30;;
50858;SDS011;36826;47.514;19.056;2022-11-15T03:48:22;27.38;;;17.92;;
50858;SDS011;36826;47.514;19.056;2022-11-15T03:50:51;26.20;;;17.48;;
50858;SDS011;36826;47.514;19.056;2022-11-15T03:53:17;26.23;;;17.20;;
50858;SDS011;36826;47.514;19.056;2022-11-15T03:55:43;24.48;;;16.83;;
50858;SDS011;36826;47.514;19.056;2022-11-15T03:58:08;25.20;;;17.15;;
50858;SDS011;36826;47.514;19.056;2022-11-15T04:00:34;23.58;;;15.70;;
50858;SDS011;36826;47.514;19.056;2022-11-15T04:02:59;26.92;;;17.58;;
50858;SDS011;36826;47.514;19.056;2022-11-15T04:05:25;25.75;;;16.67;;
50858;SDS011;36826;47.514;19.056;2022-11-15T04:07:50;24.17;;;16.75;;
50858;SDS011;36826;47.514;19.056;2022-11-15T04:10:15;21.75;;;15.98;;
50858;SDS011;36826;47.514;19.056;2022-11-15T04:12:42;23.88;;;16.00;;
50858;SDS011;36826;47.514;19.056;2022-11-15T04:15:10;23.77;;;16.40;;
50858;SDS011;36826;47.514;19.056;2022-11-15T04:17:44;21.27;;;15.35;;
50858;SDS011;36826;47.514;19.056;2022-11-15T04:20:24;25.35;;;16.63;;
50858;SDS011;36826;47.514;19.056;2022-11-15T04:23:11;23.90;;;15.93;;
50858;SDS011;36826;47.514;19.056;2022-11-15T04:25:58;22.92;;;15.95;;
50858;SDS011;36826;47.514;19.056;2022-11-15T04:28:25;22.30;;;15.82;;
50858;SDS011;36826;47.514;19.056;2022-11-15T04:30:51;21.92;;;15.45;;
50858;SDS011;36826;47.514;19.056;2022-11-15T04:33:16;22.10;;;15.15;;
50858;SDS011;36826;47.514;19.056;2022-11-15T04:35:42;23.45;;;15.95;;
50858;SDS011;36826;47.514;19.056;2022-11-15T04:38:08;22.10;;;15.25;;
50858;SDS011;36826;47.514;19.056;2022-11-15T04:40:35;25.23;;;15.85;;
50858;SDS011;36826;47.514;19.056;2022-11-15T04:43:01;23.58;;;15.20;;
50858;SDS011;36826;47.514;19.056;2022-11-15T04:45:26;22.75;;;15.90;;
50858;SDS011;36826;47.514;19.056;2022-11-15T04:47:52;22.35;;;15.70;;
50858;SDS011;36826;47.514;19.056;2022-11-15T04:50:17;22.73;;;15.38;;
50858;SDS011;36826;47.514;19.056;2022-11-15T04:52:49;23.35;;;16.15;;
50858;SDS011;36826;47.514;19.056;2022-11-15T04:55:16;24.05;;;16.25;;
50858;SDS011;36826;47.514;19.056;2022-11-15T04:57:42;22.88;;;15.48;;
50858;SDS011;36826;47.514;19.056;2022-11-15T05:00:08;21.55;;;15.60;;
50858;SDS011;36826;47.514;19.056;2022-11-15T05:02:36;23.70;;;16.45;;
50858;SDS011;36826;47.514;19.056;2022-11-15T05:05:20;23.38;;;16.45;;
50858;SDS011;36826;47.514;19.056;2022-11-15T05:07:45;23.25;;;16.50;;
50858;SDS011;36826;47.514;19.056;2022-11-15T05:10:11;23.52;;;16.52;;
50858;SDS011;36826;47.514;19.056;2022-11-15T05:12:36;21.55;;;15.93;;
50858;SDS011;36826;47.514;19.056;2022-11-15T05:15:02;26.05;;;17.42;;
50858;SDS011;36826;47.514;19.056;2022-11-15T05:17:28;22.98;;;15.75;;
50858;SDS011;36826;47.514;19.056;2022-11-15T05:19:53;24.52;;;17.05;;
50858;SDS011;36826;47.514;19.056;2022-11-15T05:22:19;27.10;;;18.00;;
50858;SDS011;36826;47.514;19.056;2022-11-15T05:24:45;23.30;;;17.10;;
50858;SDS011;36826;47.514;19.056;2022-11-15T05:27:10;23.40;;;16.05;;
50858;SDS011;36826;47.514;19.056;2022-11-15T05:29:36;24.35;;;17.00;;
50858;SDS011;36826;47.514;19.056;2022-11-15T05:32:03;23.25;;;15.95;;
50858;SDS011;36826;47.514;19.056;2022-11-15T05:34:30;26.27;;;17.23;;
50858;SDS011;36826;47.514;19.056;2022-11-15T05:36:55;25.70;;;17.50;;
50858;SDS011;36826;47.514;19.056;2022-11-15T05:39:21;26.05;;;17.48;;
50858;SDS011;36826;47.514;19.056;2022-11-15T05:41:48;21.38;;;16.00;;
50858;SDS011;36826;47.514;19.056;2022-11-15T05:44:17;24.38;;;17.27;;
50858;SDS011;36826;47.514;19.056;2022-11-15T05:46:45;24.98;;;18.15;;
50858;SDS011;36826;47.514;19.056;2022-11-15T05:49:13;26.77;;;18.25;;
50858;SDS011;36826;47.514;19.056;2022-11-15T05:51:44;24.73;;;17.90;;
50858;SDS011;36826;47.514;19.056;2022-11-15T05:54:13;23.70;;;17.92;;
50858;SDS011;36826;47.514;19.056;2022-11-15T05:56:39;26.98;;;18.27;;
50858;SDS011;36826;47.514;19.056;2022-11-15T05:59:04;27.88;;;18.83;;
50858;SDS011;36826;47.514;19.056;2022-11-15T06:01:32;27.30;;;19.23;;
50858;SDS011;36826;47.514;19.056;2022-11-15T06:03:57;25.92;;;19.00;;
50858;SDS011;36826;47.514;19.056;2022-11-15T06:06:23;26.70;;;18.98;;
50858;SDS011;36826;47.514;19.056;2022-11-15T06:08:48;27.85;;;20.13;;
50858;SDS011;36826;47.514;19.056;2022-11-15T06:11:14;26.23;;;19.88;;
50858;SDS011;36826;47.514;19.056;2022-11-15T06:13:39;26.73;;;18.98;;
50858;SDS011;36826;47.514;19.056;2022-11-15T06:16:05;26.95;;;19.88;;
50858;SDS011;36826;47.514;19.056;2022-11-15T06:18:34;26.73;;;19.45;;
50858;SDS011;36826;47.514;19.056;2022-11-15T06:21:00;28.42;;;19.52;;
50858;SDS011;36826;47.514;19.056;2022-11-15T06:23:26;25.63;;;19.40;;
50858;SDS011;36826;47.514;19.056;2022-11-15T06:25:52;29.08;;;20.05;;
50858;SDS011;36826;47.514;19.056;2022-11-15T06:28:17;28.83;;;20.23;;
50858;SDS011;36826;47.514;19.056;2022-11-15T06:30:42;28.58;;;20.08;;
50858;SDS011;36826;47.514;19.056;2022-11-15T06:33:08;27.13;;;19.42;;
50858;SDS011;36826;47.514;19.056;2022-11-15T06:35:34;28.98;;;20.35;;
50858;SDS011;36826;47.514;19.056;2022-11-15T06:38:07;27.85;;;20.65;;
50858;SDS011;36826;47.514;19.056;2022-11-15T06:40:37;27.00;;;19.77;;
50858;SDS011;36826;47.514;19.056;2022-11-15T06:43:03;29.02;;;21.38;;
50858;SDS011;36826;47.514;19.056;2022-11-15T06:45:30;27.27;;;20.38;;
50858;SDS011;36826;47.514;19.056;2022-11-15T06:47:56;29.50;;;20.83;;
50858;SDS011;36826;47.514;19.056;2022-11-15T06:50:22;26.55;;;19.60;;
50858;SDS011;36826;47.514;19.056;2022-11-15T06:52:47;28.55;;;19.90;;
50858;SDS011;36826;47.514;19.056;2022-11-15T06:55:12;27.63;;;20.33;;
50858;SDS011;36826;47.514;19.056;2022-11-15T06:57:45;27.08;;;19.77;;
50858;SDS011;36826;47.514;19.056;2022-11-15T07:00:18;26.42;;;19.67;;
50858;SDS011;36826;47.514;19.056;2022-11-15T07:02:44;27.23;;;19.75;;
50858;SDS011;36826;47.514;19.056;2022-11-15T07:05:10;26.20;;;19.88;;
50858;SDS011;36826;47.514;19.056;2022-11-15T07:07:37;29.70;;;20.63;;
50858;SDS011;36826;47.514;19.056;2022-11-15T07:10:02;29.63;;;20.95;;
50858;SDS011;36826;47.514;19.056;2022-11-15T07:12:28;29.92;;;20.88;;
50858;SDS011;36826;47.514;19.056;2022-11-15T07:14:53;29.85;;;20.80;;
50858;SDS011;36826;47.514;19.056;2022-11-15T07:17:19;28.60;;;20.90;;
50858;SDS011;36826;47.514;19.056;2022-11-15T07:21:42;30.83;;;20.73;;
50858;SDS011;36826;47.514;19.056;2022-11-15T07:24:08;28.08;;;21.02;;
50858;SDS011;36826;47.514;19.056;2022-11-15T07:26:33;31.40;;;21.48;;
50858;SDS011;36826;47.514;19.056;2022-11-15T07:28:58;28.10;;;20.95;;
50858;SDS011;36826;47.514;19.056;2022-11-15T07:31:24;30.08;;;20.92;;
50858;SDS011;36826;47.514;19.056;2022-11-15T07:33:50;27.88;;;20.85;;
50858;SDS011;36826;47.514;19.056;2022-11-15T07:36:15;29.27;;;21.08;;
50858;SDS011;36826;47.514;19.056;2022-11-15T07:38:41;28.20;;;20.98;;
50858;SDS011;36826;47.514;19.056;2022-11-15T07:41:07;27.92;;;21.30;;
50858;SDS011;36826;47.514;19.056;2022-11-15T07:43:32;32.03;;;22.02;;
50858;SDS011;36826;47.514;19.056;2022-11-15T07:45:59;29.08;;;21.00;;
50858;SDS011;36826;47.514;19.056;2022-11-15T07:48:29;29.42;;;21.27;;
50858;SDS011;36826;47.514;19.056;2022-11-15T07:50:55;28.10;;;20.42;;
50858;SDS011;36826;47.514;19.056;2022-11-15T07:53:20;30.65;;;21.70;;
50858;SDS011;36826;47.514;19.056;2022-11-15T07:55:46;29.02;;;21.85;;
50858;SDS011;36826;47.514;19.056;2022-11-15T07:58:11;30.42;;;21.67;;
50858;SDS011;36826;47.514;19.056;2022-11-15T08:00:37;30.35;;;21.80;;
50858;SDS011;36826;47.514;19.056;2022-11-15T08:03:07;30.40;;;21.13;;
50858;SDS011;36826;47.514;19.056;2022-11-15T08:05:35;27.50;;;20.75;;
50858;SDS011;36826;47.514;19.056;2022-11-15T08:08:01;27.13;;;20.45;;
50858;SDS011;36826;47.514;19.056;2022-11-15T08:10:27;30.77;;;21.15;;
50858;SDS011;36826;47.514;19.056;2022-11-15T08:13:12;30.27;;;22.60;;
50858;SDS011;36826;47.514;19.056;2022-11-15T08:15:38;27.63;;;20.88;;
50858;SDS011;36826;47.514;19.056;2022-11-15T08:18:04;28.77;;;21.35;;
50858;SDS011;36826;47.514;19.056;2022-11-15T08:20:33;30.73;;;21.70;;
50858;SDS011;36826;47.514;19.056;2022-11-15T08:23:00;31.10;;;20.92;;
50858;SDS011;36826;47.514;19.056;2022-11-15T08:25:27;31.17;;;22.27;;
50858;SDS011;36826;47.514;19.056;2022-11-15T08:27:53;28.92;;;21.52;;
50858;SDS011;36826;47.514;19.056;2022-11-15T08:30:20;30.88;;;22.50;;
50858;SDS011;36826;47.514;19.056;2022-11-15T08:32:46;33.53;;;23.80;;
50858;SDS011;36826;47.514;19.056;2022-11-15T08:35:12;33.83;;;22.77;;
50858;SDS011;36826;47.514;19.056;2022-11-15T08:37:38;32.08;;;23.83;;
50858;SDS011;36826;47.514;19.056;2022-11-15T08:40:04;36.05;;;23.75;;
50858;SDS011;36826;47.514;19.056;2022-11-15T08:42:30;32.00;;;23.60;;
50858;SDS011;36826;47.514;19.056;2022-11-15T08:44:55;29.88;;;22.63;;
50858;SDS011;36826;47.514;19.056;2022-11-15T08:47:20;30.75;;;22.45;;
50858;SDS011;36826;47.514;19.056;2022-11-15T08:49:46;30.27;;;21.73;;
50858;SDS011;36826;47.514;19.056;2022-11-15T08:52:11;32.15;;;23.17;;
50858;SDS011;36826;47.514;19.056;2022-11-15T08:54:38;30.27;;;22.67;;
50858;SDS011;36826;47.514;19.056;2022-11-15T08:57:03;30.48;;;22.55;;
50858;SDS011;36826;47.514;19.056;2022-11-15T08:59:29;28.45;;;21.88;;
50858;SDS011;36826;47.514;19.056;2022-11-15T09:01:54;26.08;;;20.92;;
50858;SDS011;36826;47.514;19.056;2022-11-15T09:04:20;28.15;;;20.90;;
50858;SDS011;36826;47.514;19.056;2022-11-15T09:06:45;34.47;;;22.52;;
50858;SDS011;36826;47.514;19.056;2022-11-15T09:09:10;31.58;;;21.83;;
50858;SDS011;36826;47.514;19.056;2022-11-15T09:11:36;31.50;;;22.63;;
50858;SDS011;36826;47.514;19.056;2022-11-15T09:14:01;29.30;;;21.98;;
50858;SDS011;36826;47.514;19.056;2022-11-15T09:16:27;32.75;;;22.85;;
50858;SDS011;36826;47.514;19.056;2022-11-15T09:18:53;29.75;;;22.40;;
50858;SDS011;36826;47.514;19.056;2022-11-15T09:21:19;32.13;;;23.23;;
50858;SDS011;36826;47.514;19.056;2022-11-15T09:23:45;30.40;;;22.40;;
50858;SDS011;36826;47.514;19.056;2022-11-15T09:26:10;29.90;;;22.15;;
50858;SDS011;36826;47.514;19.056;2022-11-15T09:28:36;30.80;;;22.08;;
50858;SDS011;36826;47.514;19.056;2022-11-15T09:31:02;30.42;;;21.52;;
50858;SDS011;36826;47.514;19.056;2022-11-15T09:33:30;31.60;;;22.45;;
50858;SDS011;36826;47.514;19.056;2022-11-15T09:35:59;34.88;;;21.98;;
50858;SDS011;36826;47.514;19.056;2022-11-15T09:38:26;31.17;;;22.92;;
50858;SDS011;36826;47.514;19.056;2022-11-15T09:40:53;30.45;;;22.73;;
50858;SDS011;36826;47.514;19.056;2022-11-15T09:46:32;28.55;;;21.70;;
50858;SDS011;36826;47.514;19.056;2022-11-15T09:49:20;29.77;;;21.55;;
50858;SDS011;36826;47.514;19.056;2022-11-15T09:51:47;32.47;;;21.70;;
50858;SDS011;36826;47.514;19.056;2022-11-15T09:56:56;29.88;;;22.08;;
50858;SDS011;36826;47.514;19.056;2022-11-15T10:02:31;49.72;;;25.42;;
50858;SDS011;36826;47.514;19.056;2022-11-15T10:05:18;32.33;;;24.25;;
50858;SDS011;36826;47.514;19.056;2022-11-15T10:07:57;37.38;;;25.85;;
50858;SDS011;36826;47.514;19.056;2022-11-15T10:10:39;38.38;;;26.40;;
50858;SDS011;36826;47.514;19.056;2022-11-15T10:13:13;37.88;;;26.38;;
50858;SDS011;36826;47.514;19.056;2022-11-15T10:15:43;36.17;;;26.02;;
50858;SDS011;36826;47.514;19.056;2022-11-15T10:20:57;32.90;;;24.65;;
50858;SDS011;36826;47.514;19.056;2022-11-15T10:23:25;33.88;;;25.48;;
50858;SDS011;36826;47.514;19.056;2022-11-15T10:25:58;37.05;;;25.85;;
50858;SDS011;36826;47.514;19.056;2022-11-15T10:28:28;39.13;;;25.98;;
50858;SDS011;36826;47.514;19.056;2022-11-15T10:30:59;37.90;;;26.25;;
50858;SDS011;36826;47.514;19.056;2022-11-15T10:36:14;38.05;;;28.05;;
50858;SDS011;36826;47.514;19.056;2022-11-15T10:41:15;36.05;;;25.42;;
50858;SDS011;36826;47.514;19.056;2022-11-15T10:43:43;34.20;;;25.85;;
50858;SDS011;36826;47.514;19.056;2022-11-15T10:46:22;36.55;;;26.52;;
50858;SDS011;36826;47.514;19.056;2022-11-15T10:48:49;39.42;;;27.10;;
50858;SDS011;36826;47.514;19.056;2022-11-15T10:51:22;38.45;;;27.17;;
50858;SDS011;36826;47.514;19.056;2022-11-15T10:53:54;36.38;;;26.55;;
50858;SDS011;36826;47.514;19.056;2022-11-15T10:56:22;36.40;;;27.02;;
50858;SDS011;36826;47.514;19.056;2022-11-15T10:58:53;37.97;;;26.63;;
50858;SDS011;36826;47.514;19.056;2022-11-15T11:01:27;38.13;;;27.27;;
50858;SDS011;36826;47.514;19.056;2022-11-15T11:04:08;36.00;;;26.02;;
50858;SDS011;36826;47.514;19.056;2022-11-15T11:06:50;36.40;;;26.33;;
50858;SDS011;36826;47.514;19.056;2022-11-15T11:11:57;39.38;;;26.77;;
50858;SDS011;36826;47.514;19.056;2022-11-15T11:14:24;36.63;;;27.00;;
50858;SDS011;36826;47.514;19.056;2022-11-15T11:16:57;36.15;;;26.58;;
50858;SDS011;36826;47.514;19.056;2022-11-15T11:25:33;38.70;;;27.92;;
50858;SDS011;36826;47.514;19.056;2022-11-15T11:33:38;37.95;;;26.92;;
50858;SDS011;36826;47.514;19.056;2022-11-15T11:36:10;40.50;;;27.60;;
50858;SDS011;36826;47.514;19.056;2022-11-15T11:46:56;34.95;;;26.35;;
50858;SDS011;36826;47.514;19.056;2022-11-15T11:52:25;38.17;;;26.33;;
50858;SDS011;36826;47.514;19.056;2022-11-15T12:00:40;38.92;;;27.58;;
50858;SDS011;36826;47.514;19.056;2022-11-15T12:03:14;40.47;;;27.00;;
50858;SDS011;36826;47.514;19.056;2022-11-15T12:05:50;45.45;;;30.83;;
50858;SDS011;36826;47.514;19.056;2022-11-15T12:08:41;36.50;;;26.85;;
50858;SDS011;36826;47.514;19.056;2022-11-15T12:11:13;55.45;;;36.03;;
50858;SDS011;36826;47.514;19.056;2022-11-15T12:13:42;40.55;;;27.30;;
50858;SDS011;36826;47.514;19.056;2022-11-15T12:16:14;40.27;;;28.13;;
50858;SDS011;36826;47.514;19.056;2022-11-15T12:18:47;40.65;;;27.70;;
50858;SDS011;36826;47.514;19.056;2022-11-15T12:22:03;39.60;;;28.10;;
50858;SDS011;36826;47.514;19.056;2022-11-15T12:27:20;35.03;;;26.13;;
50858;SDS011;36826;47.514;19.056;2022-11-15T12:30:02;40.20;;;27.98;;
50858;SDS011;36826;47.514;19.056;2022-11-15T12:32:33;38.17;;;27.75;;
50858;SDS011;36826;47.514;19.056;2022-11-15T12:35:02;41.17;;;27.80;;
50858;SDS011;36826;47.514;19.056;2022-11-15T12:42:56;43.15;;;29.60;;
50858;SDS011;36826;47.514;19.056;2022-11-15T12:47:52;45.78;;;32.35;;
50858;SDS011;36826;47.514;19.056;2022-11-15T12:50:36;45.83;;;32.47;;
50858;SDS011;36826;47.514;19.056;2022-11-15T13:04:24;54.10;;;36.65;;
50858;SDS011;36826;47.514;19.056;2022-11-15T13:06:55;55.40;;;38.13;;
50858;SDS011;36826;47.514;19.056;2022-11-15T13:12:04;61.85;;;38.58;;
50858;SDS011;36826;47.514;19.056;2022-11-15T13:17:01;55.55;;;36.42;;
50858;SDS011;36826;47.514;19.056;2022-11-15T13:19:28;60.95;;;40.33;;
50858;SDS011;36826;47.514;19.056;2022-11-15T13:21:53;63.30;;;42.20;;
50858;SDS011;36826;47.514;19.056;2022-11-15T13:24:38;63.25;;;40.75;;
50858;SDS011;36826;47.514;19.056;2022-11-15T13:27:36;64.93;;;42.03;;
50858;SDS011;36826;47.514;19.056;2022-11-15T13:29:56;64.60;;;42.35;;
50858;SDS011;36826;47.514;19.056;2022-11-15T13:32:21;62.10;;;40.22;;
50858;SDS011;36826;47.514;19.056;2022-11-15T13:34:47;63.38;;;40.88;;
50858;SDS011;36826;47.514;19.056;2022-11-15T13:37:37;57.03;;;37.83;;
50858;SDS011;36826;47.514;19.056;2022-11-15T13:42:46;59.03;;;37.13;;
50858;SDS011;36826;47.514;19.056;2022-11-15T13:45:13;59.72;;;38.22;;
50858;SDS011;36826;47.514;19.056;2022-11-15T13:47:41;60.70;;;39.15;;
50858;SDS011;36826;47.514;19.056;2022-11-15T13:50:10;59.13;;;39.30;;
50858;SDS011;36826;47.514;19.056;2022-11-15T13:52:36;72.10;;;44.03;;
50858;SDS011;36826;47.514;19.056;2022-11-15T13:55:12;66.25;;;42.10;;
50858;SDS011;36826;47.514;19.056;2022-11-15T13:57:48;67.15;;;42.58;;
50858;SDS011;36826;47.514;19.056;2022-11-15T14:03:27;67.00;;;42.35;;
50858;SDS011;36826;47.514;19.056;2022-11-15T14:06:05;60.33;;;39.50;;
50858;SDS011;36826;47.514;19.056;2022-11-15T14:08:36;63.45;;;40.63;;
50858;SDS011;36826;47.514;19.056;2022-11-15T14:13:32;63.20;;;38.50;;
50858;SDS011;36826;47.514;19.056;2022-11-15T14:18:44;53.13;;;33.55;;
50858;SDS011;36826;47.514;19.056;2022-11-15T14:21:10;56.55;;;35.47;;
50858;SDS011;36826;47.514;19.056;2022-11-15T14:23:37;52.38;;;32.30;;
50858;SDS011;36826;47.514;19.056;2022-11-15T14:26:03;46.20;;;30.40;;
50858;SDS011;36826;47.514;19.056;2022-11-15T14:28:29;47.10;;;31.42;;
50858;SDS011;36826;47.514;19.056;2022-11-15T14:30:58;43.13;;;27.92;;
50858;SDS011;36826;47.514;19.056;2022-11-15T14:33:27;47.63;;;31.55;;
50858;SDS011;36826;47.514;19.056;2022-11-15T14:35:56;50.13;;;32.53;;
50858;SDS011;36826;47.514;19.056;2022-11-15T14:38:23;47.90;;;31.70;;
50858;SDS011;36826;47.514;19.056;2022-11-15T14:43:16;47.17;;;31.80;;
50858;SDS011;36826;47.514;19.056;2022-11-15T14:45:42;54.25;;;34.42;;
50858;SDS011;36826;47.514;19.056;2022-11-15T14:48:08;52.45;;;33.75;;
50858;SDS011;36826;47.514;19.056;2022-11-15T14:50:33;55.17;;;35.65;;
50858;SDS011;36826;47.514;19.056;2022-11-15T14:53:00;56.55;;;34.97;;
50858;SDS011;36826;47.514;19.056;2022-11-15T14:55:27;55.50;;;34.85;;
50858;SDS011;36826;47.514;19.056;2022-11-15T14:57:56;56.20;;;35.50;;
50858;SDS011;36826;47.514;19.056;2022-11-15T15:00:22;56.50;;;36.20;;
50858;SDS011;36826;47.514;19.056;2022-11-15T15:02:48;57.13;;;36.80;;
50858;SDS011;36826;47.514;19.056;2022-11-15T15:05:22;60.63;;;35.83;;
50858;SDS011;36826;47.514;19.056;2022-11-15T15:07:55;56.22;;;36.15;;
50858;SDS011;36826;47.514;19.056;2022-11-15T15:10:21;56.58;;;36.20;;
50858;SDS011;36826;47.514;19.056;2022-11-15T15:12:46;53.78;;;34.28;;
50858;SDS011;36826;47.514;19.056;2022-11-15T15:15:13;56.70;;;35.58;;
50858;SDS011;36826;47.514;19.056;2022-11-15T15:17:40;57.40;;;37.13;;
50858;SDS011;36826;47.514;19.056;2022-11-15T15:20:06;53.30;;;36.55;;
50858;SDS011;36826;47.514;19.056;2022-11-15T15:22:32;54.50;;;35.70;;
50858;SDS011;36826;47.514;19.056;2022-11-15T15:24:58;55.88;;;36.17;;
50858;SDS011;36826;47.514;19.056;2022-11-15T15:27:23;52.90;;;35.97;;
50858;SDS011;36826;47.514;19.056;2022-11-15T15:29:48;51.80;;;32.33;;
50858;SDS011;36826;47.514;19.056;2022-11-15T15:32:14;47.80;;;31.23;;
50858;SDS011;36826;47.514;19.056;2022-11-15T15:34:39;48.75;;;31.20;;
50858;SDS011;36826;47.514;19.056;2022-11-15T15:37:06;44.00;;;29.85;;
50858;SDS011;36826;47.514;19.056;2022-11-15T15:39:32;46.25;;;31.23;;
50858;SDS011;36826;47.514;19.056;2022-11-15T15:41:58;47.25;;;31.20;;
50858;SDS011;36826;47.514;19.056;2022-11-15T15:44:23;45.72;;;29.98;;
50858;SDS011;36826;47.514;19.056;2022-11-15T15:46:49;43.00;;;27.73;;
50858;SDS011;36826;47.514;19.056;2022-11-15T15:49:14;43.75;;;28.83;;
50858;SDS011;36826;47.514;19.056;2022-11-15T15:51:39;44.83;;;28.00;;
50858;SDS011;36826;47.514;19.056;2022-11-15T15:54:05;44.25;;;28.27;;
50858;SDS011;36826;47.514;19.056;2022-11-15T15:56:30;46.70;;;30.20;;
50858;SDS011;36826;47.514;19.056;2022-11-15T15:58:56;45.33;;;28.42;;
50858;SDS011;36826;47.514;19.056;2022-11-15T16:01:21;44.80;;;29.83;;
50858;SDS011;36826;47.514;19.056;2022-11-15T16:03:46;47.35;;;31.05;;
50858;SDS011;36826;47.514;19.056;2022-11-15T16:09:01;45.30;;;29.25;;
50858;SDS011;36826;47.514;19.056;2022-11-15T16:11:27;46.97;;;29.77;;
50858;SDS011;36826;47.514;19.056;2022-11-15T16:13:53;47.10;;;29.70;;